createdAt,value
2022-12-01T00:01:15.530Z,99180.47
2022-12-01T00:03:42.107Z,99179.19
2022-12-01T00:06:16.160Z,99181.66
2022-12-01T00:09:04.494Z,99177.50
2022-12-01T00:11:31.650Z,99173.97
2022-12-01T00:13:58.164Z,99173.84
2022-12-01T00:16:24.667Z,99170.94
2022-12-01T00:18:52.921Z,99168.31
2022-12-01T00:21:23.848Z,99172.63
2022-12-01T00:23:53.913Z,99176.81
2022-12-01T00:26:21.840Z,99171.84
2022-12-01T00:28:50.636Z,99172.22
2022-12-01T00:31:17.304Z,99170.91
2022-12-01T00:33:43.905Z,99167.44
2022-12-01T00:36:10.617Z,99167.03
2022-12-01T00:38:37.756Z,99171.50
2022-12-01T00:41:05.139Z,99167.75
2022-12-01T00:43:31.836Z,99163.94
2022-12-01T00:45:58.574Z,99161.22
2022-12-01T00:48:25.466Z,99163.50
2022-12-01T00:50:54.154Z,99161.66
2022-12-01T00:53:21.168Z,99161.94
2022-12-01T00:55:47.732Z,99163.31
2022-12-01T00:58:14.286Z,99163.94
2022-12-01T01:00:42.892Z,99159.97
2022-12-01T01:03:10.979Z,99167.31
2022-12-01T01:05:39.918Z,99171.00
2022-12-01T01:08:13.000Z,99165.75
2022-12-01T01:10:41.968Z,99173.31
2022-12-01T01:13:08.959Z,99171.75
2022-12-01T01:15:36.027Z,99180.13
2022-12-01T01:18:02.731Z,99180.13
2022-12-01T01:20:29.808Z,99189.78
2022-12-01T01:22:56.378Z,99184.53
2022-12-01T01:25:23.032Z,99179.38
2022-12-01T01:27:50.220Z,99179.91
2022-12-01T01:30:17.724Z,99186.66
2022-12-01T01:32:44.399Z,99194.38
2022-12-01T01:35:10.887Z,99193.53
2022-12-01T01:37:37.356Z,99194.63
2022-12-01T01:40:04.687Z,99200.72
2022-12-01T01:42:31.145Z,99199.03
2022-12-01T01:44:58.891Z,99199.66
2022-12-01T01:47:38.421Z,99191.97
2022-12-01T01:50:10.899Z,99191.66
2022-12-01T01:52:48.206Z,99200.16
2022-12-01T01:55:15.545Z,99196.69
2022-12-01T01:57:44.580Z,99195.59
2022-12-01T02:00:16.161Z,99191.97
2022-12-01T02:02:46.433Z,99190.84
2022-12-01T02:05:21.030Z,99193.47
2022-12-01T02:07:50.142Z,99196.09
2022-12-01T02:10:22.471Z,99196.09
2022-12-01T02:13:13.337Z,99189.06
2022-12-01T02:16:12.243Z,99187.22
2022-12-01T02:19:35.142Z,99183.63
2022-12-01T02:22:54.035Z,99184.81
2022-12-01T02:25:40.792Z,99191.63
2022-12-01T02:28:46.771Z,99189.63
2022-12-01T02:31:26.679Z,99185.88
2022-12-01T02:34:18.719Z,99183.91
2022-12-01T02:37:05.333Z,99184.56
2022-12-01T02:39:47.034Z,99187.88
2022-12-01T02:42:53.555Z,99184.19
2022-12-01T02:45:54.845Z,99190.72
2022-12-01T02:48:35.236Z,99181.09
2022-12-01T02:51:11.889Z,99180.41
2022-12-01T02:53:38.587Z,99187.13
2022-12-01T02:56:11.631Z,99180.16
2022-12-01T02:58:38.085Z,99188.97
2022-12-01T03:01:38.365Z,99185.44
2022-12-01T03:04:56.573Z,99186.31
2022-12-01T03:07:47.638Z,99177.22
2022-12-01T03:10:26.555Z,99176.00
2022-12-01T03:13:38.070Z,99181.09
2022-12-01T03:16:16.223Z,99176.56
2022-12-01T03:18:59.546Z,99176.47
2022-12-01T03:21:41.426Z,99188.19
2022-12-01T03:24:15.964Z,99185.81
2022-12-01T03:26:48.576Z,99177.63
2022-12-01T03:29:21.717Z,99186.31
2022-12-01T03:31:56.950Z,99182.53
2022-12-01T03:34:49.576Z,99178.22
2022-12-01T03:38:12.488Z,99185.88
2022-12-01T03:40:40.295Z,99176.63
2022-12-01T03:43:15.043Z,99170.63
2022-12-01T03:46:09.616Z,99169.97
2022-12-01T03:48:38.734Z,99171.03
2022-12-01T03:51:22.220Z,99170.78
2022-12-01T03:54:03.809Z,99181.97
2022-12-01T03:56:42.662Z,99175.28
2022-12-01T03:59:11.346Z,99173.09
2022-12-01T04:01:37.950Z,99176.56
2022-12-01T04:04:14.535Z,99184.19
2022-12-01T04:06:49.876Z,99181.69
2022-12-01T04:09:17.059Z,99183.72
2022-12-01T04:12:02.177Z,99180.72
2022-12-01T04:14:29.954Z,99189.72
2022-12-01T04:16:56.472Z,99189.22
2022-12-01T04:19:22.907Z,99180.25
2022-12-01T04:21:49.431Z,99184.91
2022-12-01T04:24:16.445Z,99183.03
2022-12-01T04:26:43.378Z,99185.16
2022-12-01T04:29:11.610Z,99191.97
2022-12-01T04:31:38.358Z,99193.84
2022-12-01T04:34:05.834Z,99188.19
2022-12-01T04:36:34.723Z,99191.44
2022-12-01T04:39:01.752Z,99182.31
2022-12-01T04:41:28.356Z,99184.63
2022-12-01T04:43:55.874Z,99191.97
2022-12-01T04:46:23.812Z,99190.00
2022-12-01T04:48:50.687Z,99188.09
2022-12-01T04:51:17.854Z,99185.03
2022-12-01T04:53:44.602Z,99184.84
2022-12-01T04:56:11.137Z,99187.91
2022-12-01T04:58:38.349Z,99185.09
2022-12-01T05:01:12.623Z,99182.03
2022-12-01T05:03:43.365Z,99191.44
2022-12-01T05:06:23.337Z,99188.78
2022-12-01T05:08:51.092Z,99199.69
2022-12-01T05:11:18.914Z,99193.25
2022-12-01T05:13:48.839Z,99195.88
2022-12-01T05:16:22.125Z,99194.47
2022-12-01T05:18:51.379Z,99200.47
2022-12-01T05:21:18.391Z,99194.25
2022-12-01T05:23:45.601Z,99200.66
2022-12-01T05:26:12.243Z,99199.94
2022-12-01T05:28:40.775Z,99198.91
2022-12-01T05:31:07.355Z,99209.41
2022-12-01T05:33:33.852Z,99201.53
2022-12-01T05:36:00.310Z,99203.94
2022-12-01T05:38:26.853Z,99209.78
2022-12-01T05:40:55.802Z,99200.94
2022-12-01T05:43:28.550Z,99198.66
2022-12-01T05:45:56.525Z,99199.94
2022-12-01T05:48:23.630Z,99198.06
2022-12-01T05:50:50.221Z,99197.09
2022-12-01T05:53:17.547Z,99208.72
2022-12-01T05:55:44.286Z,99202.13
2022-12-01T05:58:13.209Z,99212.00
2022-12-01T06:00:45.393Z,99205.91
2022-12-01T06:03:12.687Z,99220.00
2022-12-01T06:05:39.422Z,99206.34
2022-12-01T06:08:06.472Z,99217.63
2022-12-01T06:10:33.100Z,99211.97
2022-12-01T06:12:59.635Z,99209.81
2022-12-01T06:15:27.080Z,99208.75
2022-12-01T06:17:53.611Z,99205.91
2022-12-01T06:20:20.268Z,99214.84
2022-12-01T06:22:48.301Z,99219.19
2022-12-01T06:25:14.926Z,99219.53
2022-12-01T06:27:41.374Z,99216.19
2022-12-01T06:30:08.961Z,99225.41
2022-12-01T06:32:36.361Z,99221.09
2022-12-01T06:35:03.087Z,99224.31
2022-12-01T06:37:29.627Z,99221.28
2022-12-01T06:39:56.234Z,99227.78
2022-12-01T06:42:22.831Z,99224.00
2022-12-01T06:44:49.338Z,99230.38
2022-12-01T06:47:15.865Z,99227.38
2022-12-01T06:49:42.389Z,99228.09
2022-12-01T06:52:10.099Z,99231.66
2022-12-01T06:54:37.446Z,99229.25
2022-12-01T06:57:13.795Z,99233.97
2022-12-01T06:59:40.466Z,99241.44
2022-12-01T07:02:11.756Z,99237.66
2022-12-01T07:04:38.347Z,99241.00
2022-12-01T07:07:05.960Z,99249.34
2022-12-01T07:09:32.525Z,99246.63
2022-12-01T07:11:59.068Z,99238.91
2022-12-01T07:14:27.206Z,99249.34
2022-12-01T07:16:53.851Z,99245.50
2022-12-01T07:19:20.620Z,99246.38
2022-12-01T07:21:47.460Z,99258.13
2022-12-01T07:24:14.143Z,99256.66
2022-12-01T07:26:41.439Z,99260.69
2022-12-01T07:29:09.835Z,99267.06
2022-12-01T07:31:38.254Z,99265.91
2022-12-01T07:34:05.803Z,99252.81
2022-12-01T07:36:33.050Z,99256.56
2022-12-01T07:39:04.534Z,99260.34
2022-12-01T07:41:31.016Z,99254.78
2022-12-01T07:43:57.541Z,99262.53
2022-12-01T07:46:27.262Z,99260.75
2022-12-01T07:48:55.932Z,99265.78
2022-12-01T07:51:25.092Z,99260.69
2022-12-01T07:53:54.257Z,99265.31
2022-12-01T07:56:22.961Z,99262.84
2022-12-01T07:58:49.672Z,99264.56
2022-12-01T08:01:20.765Z,99261.06
2022-12-01T08:03:56.481Z,99270.41
2022-12-01T08:06:25.601Z,99268.97
2022-12-01T08:08:52.692Z,99270.41
2022-12-01T08:11:23.725Z,99268.72
2022-12-01T08:13:52.136Z,99262.94
2022-12-01T08:16:22.374Z,99260.94
2022-12-01T08:18:50.120Z,99265.38
2022-12-01T08:21:20.365Z,99266.50
2022-12-01T08:23:47.721Z,99270.91
2022-12-01T08:26:18.509Z,99270.06
2022-12-01T08:28:46.205Z,99273.31
2022-12-01T08:31:23.470Z,99278.56
2022-12-01T08:33:51.123Z,99279.66
2022-12-01T08:36:20.362Z,99276.72
2022-12-01T08:38:50.245Z,99286.53
2022-12-01T08:41:17.481Z,99283.38
2022-12-01T08:44:01.118Z,99286.06
2022-12-01T08:46:33.259Z,99279.72
2022-12-01T08:49:00.936Z,99282.72
2022-12-01T08:51:28.223Z,99285.94
2022-12-01T08:53:57.480Z,99289.03
2022-12-01T08:56:37.665Z,99284.72
2022-12-01T08:59:04.968Z,99285.31
2022-12-01T09:01:32.985Z,99283.38
2022-12-01T09:04:05.753Z,99287.69
2022-12-01T09:06:44.999Z,99287.41
2022-12-01T09:09:16.328Z,99291.97
2022-12-01T09:11:44.408Z,99296.19
2022-12-01T09:14:12.870Z,99290.91
2022-12-01T09:16:41.126Z,99295.97
2022-12-01T09:19:08.020Z,99294.50
2022-12-01T09:21:39.361Z,99292.66
2022-12-01T09:24:07.575Z,99287.59
2022-12-01T09:26:34.421Z,99288.78
2022-12-01T09:29:09.006Z,99287.56
2022-12-01T09:31:36.712Z,99292.75
2022-12-01T09:34:07.667Z,99287.56
2022-12-01T09:36:37.882Z,99284.00
2022-12-01T09:39:07.412Z,99278.28
2022-12-01T09:41:45.277Z,99283.84
2022-12-01T09:44:43.697Z,99291.84
2022-12-01T09:47:36.608Z,99293.47
2022-12-01T09:50:12.371Z,99291.78
2022-12-01T09:52:46.921Z,99285.81
2022-12-01T09:55:17.438Z,99280.44
2022-12-01T09:57:50.239Z,99288.22
2022-12-01T10:00:21.360Z,99277.09
2022-12-01T10:03:30.903Z,99281.00
2022-12-01T10:06:26.830Z,99280.63
2022-12-01T10:09:15.910Z,99268.72
2022-12-01T10:11:45.626Z,99269.97
2022-12-01T10:14:20.317Z,99265.97
2022-12-01T10:17:24.413Z,99259.38
2022-12-01T10:20:06.060Z,99267.44
2022-12-01T10:23:08.868Z,99270.16
2022-12-01T10:25:58.453Z,99267.44
2022-12-01T10:28:41.939Z,99267.50
2022-12-01T10:31:25.165Z,99265.25
2022-12-01T10:34:14.413Z,99258.75
2022-12-01T10:36:40.941Z,99255.00
2022-12-01T10:39:17.306Z,99257.19
2022-12-01T10:41:44.380Z,99250.34
2022-12-01T10:44:12.213Z,99250.84
2022-12-01T10:46:55.717Z,99250.66
2022-12-01T10:49:39.917Z,99252.56
2022-12-01T10:52:07.452Z,99258.44
2022-12-01T10:54:40.653Z,99253.50
2022-12-01T10:57:17.424Z,99255.59
2022-12-01T10:59:56.944Z,99242.34
2022-12-01T11:02:28.683Z,99252.25
2022-12-01T11:05:32.853Z,99254.72
2022-12-01T11:07:59.794Z,99251.25
2022-12-01T11:10:31.440Z,99245.97
2022-12-01T11:13:04.693Z,99253.84
2022-12-01T11:15:39.859Z,99252.91
2022-12-01T11:18:23.657Z,99247.22
2022-12-01T11:21:14.491Z,99247.09
2022-12-01T11:23:50.779Z,99244.88
2022-12-01T11:26:17.697Z,99237.91
2022-12-01T11:29:02.552Z,99232.19
2022-12-01T11:31:48.932Z,99230.31
2022-12-01T11:34:28.420Z,99226.19
2022-12-01T11:37:00.088Z,99235.78
2022-12-01T11:39:32.355Z,99228.53
2022-12-01T11:42:14.919Z,99226.78
2022-12-01T11:45:02.884Z,99228.00
2022-12-01T11:47:29.403Z,99232.66
2022-12-01T11:50:03.047Z,99230.00
2022-12-01T11:52:31.081Z,99230.75
2022-12-01T11:55:28.260Z,99228.06
2022-12-01T11:58:01.672Z,99228.13
2022-12-01T12:00:43.184Z,99220.47
2022-12-01T12:03:20.798Z,99224.34
2022-12-01T12:06:05.935Z,99211.75
2022-12-01T12:08:56.796Z,99217.81
2022-12-01T12:11:36.892Z,99220.44
2022-12-01T12:14:48.919Z,99216.38
2022-12-01T12:17:58.472Z,99222.03
2022-12-01T12:21:31.282Z,99213.41
2022-12-01T12:24:31.101Z,99217.06
2022-12-01T12:27:11.860Z,99209.28
2022-12-01T12:30:17.942Z,99211.41
2022-12-01T12:33:06.344Z,99207.53
2022-12-01T12:35:43.136Z,99215.72
2022-12-01T12:38:47.325Z,99209.06
2022-12-01T12:41:48.570Z,99204.25
2022-12-01T12:44:37.359Z,99203.13
2022-12-01T12:47:25.659Z,99202.78
2022-12-01T12:50:11.988Z,99197.38
2022-12-01T12:52:48.002Z,99201.38
2022-12-01T12:55:26.545Z,99196.34
2022-12-01T12:58:00.564Z,99202.28
2022-12-01T13:00:29.923Z,99207.38
2022-12-01T13:03:09.460Z,99203.88
2022-12-01T13:05:46.098Z,99201.59
2022-12-01T13:08:40.081Z,99204.59
2022-12-01T13:11:33.266Z,99196.16
2022-12-01T13:14:22.807Z,99197.06
2022-12-01T13:16:53.465Z,99196.38
2022-12-01T13:19:35.479Z,99192.03
2022-12-01T13:22:04.221Z,99195.38
2022-12-01T13:24:31.308Z,99196.84
2022-12-01T13:27:06.341Z,99182.75
2022-12-01T13:29:43.692Z,99190.03
2022-12-01T13:32:27.320Z,99196.78
2022-12-01T13:34:54.041Z,99190.00
2022-12-01T13:37:46.878Z,99181.44
2022-12-01T13:40:30.837Z,99175.22
2022-12-01T13:43:08.879Z,99172.69
2022-12-01T13:45:40.713Z,99173.25
2022-12-01T13:48:29.656Z,99177.03
2022-12-01T13:51:02.849Z,99181.81
2022-12-01T13:53:37.801Z,99178.31
2022-12-01T13:56:05.751Z,99181.19
2022-12-01T13:58:32.096Z,99172.72
2022-12-01T14:01:20.661Z,99176.97
2022-12-01T14:04:02.537Z,99174.41
2022-12-01T14:06:50.691Z,99169.75
2022-12-01T14:09:31.309Z,99170.13
2022-12-01T14:12:06.235Z,99169.44
2022-12-01T14:14:53.565Z,99173.09
2022-12-01T14:17:33.705Z,99163.03
2022-12-01T14:20:19.141Z,99160.66
2022-12-01T14:23:02.005Z,99160.22
2022-12-01T14:25:31.602Z,99165.13
2022-12-01T14:28:02.925Z,99168.47
2022-12-01T14:30:41.509Z,99166.25
2022-12-01T14:33:39.215Z,99169.66
2022-12-01T14:36:11.397Z,99176.53
2022-12-01T14:38:38.187Z,99181.03
2022-12-01T14:41:18.219Z,99171.47
2022-12-01T14:44:04.507Z,99170.53
2022-12-01T14:46:51.453Z,99172.69
2022-12-01T14:49:25.492Z,99172.75
2022-12-01T14:52:04.245Z,99169.56
2022-12-01T14:54:42.684Z,99172.19
2022-12-01T14:57:16.716Z,99178.81
2022-12-01T14:59:44.797Z,99176.66
2022-12-01T15:02:13.781Z,99173.25
2022-12-01T15:05:09.744Z,99173.53
2022-12-01T15:07:52.933Z,99176.97
2022-12-01T15:10:25.864Z,99170.91
2022-12-01T15:12:53.879Z,99174.44
2022-12-01T15:15:25.097Z,99177.84
2022-12-01T15:17:55.435Z,99178.75
2022-12-01T15:20:37.315Z,99180.44
2022-12-01T15:23:16.102Z,99173.44
2022-12-01T15:25:47.104Z,99168.19
2022-12-01T15:28:21.146Z,99179.94
2022-12-01T15:30:54.593Z,99174.44
2022-12-01T15:33:36.774Z,99178.13
2022-12-01T15:36:07.096Z,99177.84
2022-12-01T15:38:37.623Z,99178.47
2022-12-01T15:44:03.359Z,99186.31
2022-12-01T15:46:34.171Z,99194.38
2022-12-01T15:49:48.896Z,99195.97
2022-12-01T15:52:16.172Z,99193.56
2022-12-01T15:54:48.810Z,99203.31
2022-12-01T15:57:21.354Z,99203.88
2022-12-01T15:59:56.740Z,99207.38
2022-12-01T16:02:31.735Z,99212.81
2022-12-01T16:05:15.131Z,99212.41
2022-12-01T16:10:34.225Z,99207.41
2022-12-01T16:13:48.382Z,99208.34
2022-12-01T16:16:45.114Z,99205.69
2022-12-01T16:19:11.527Z,99208.50
2022-12-01T16:21:50.548Z,99204.63
2022-12-01T16:24:35.549Z,99204.97
2022-12-01T16:27:16.452Z,99206.31
2022-12-01T16:29:54.533Z,99202.56
2022-12-01T16:32:34.475Z,99199.78
2022-12-01T16:35:04.099Z,99202.41
2022-12-01T16:37:31.457Z,99197.34
2022-12-01T16:39:58.685Z,99194.00
2022-12-01T16:42:25.231Z,99193.94
2022-12-01T16:44:52.370Z,99196.34
2022-12-01T16:47:23.477Z,99200.06
2022-12-01T16:49:51.873Z,99196.53
2022-12-01T16:55:25.585Z,99204.38
2022-12-01T16:57:52.098Z,99205.09
2022-12-01T17:00:19.191Z,99205.28
2022-12-01T17:02:45.712Z,99195.47
2022-12-01T17:05:12.695Z,99198.75
2022-12-01T17:07:39.294Z,99199.19
2022-12-01T17:10:07.284Z,99201.31
2022-12-01T17:12:33.789Z,99193.69
2022-12-01T17:15:00.319Z,99203.66
2022-12-01T17:17:29.621Z,99207.75
2022-12-01T17:19:56.400Z,99202.50
2022-12-01T17:22:23.025Z,99198.78
2022-12-01T17:24:49.774Z,99201.53
2022-12-01T17:27:16.920Z,99200.91
2022-12-01T17:29:46.240Z,99213.69
2022-12-01T17:32:14.065Z,99210.75
2022-12-01T17:34:40.997Z,99208.50
2022-12-01T17:37:07.687Z,99205.75
2022-12-01T17:39:34.243Z,99214.00
2022-12-01T17:42:01.060Z,99214.88
2022-12-01T17:44:27.895Z,99218.56
2022-12-01T17:46:54.434Z,99223.28
2022-12-01T17:49:21.255Z,99222.06
2022-12-01T17:51:47.823Z,99219.66
2022-12-01T17:54:14.437Z,99226.47
2022-12-01T17:56:41.126Z,99231.19
2022-12-01T17:59:07.701Z,99225.13
2022-12-01T18:01:34.453Z,99234.09
2022-12-01T18:04:01.350Z,99234.97
2022-12-01T18:06:28.311Z,99234.09
2022-12-01T18:08:55.136Z,99244.69
2022-12-01T18:11:22.774Z,99238.59
2022-12-01T18:13:51.492Z,99234.22
2022-12-01T18:16:28.242Z,99239.56
2022-12-01T18:18:57.311Z,99241.28
2022-12-01T18:21:25.773Z,99241.28
2022-12-01T18:23:58.961Z,99235.16
2022-12-01T18:26:28.246Z,99242.34
2022-12-01T18:28:58.174Z,99243.09
2022-12-01T18:31:25.484Z,99240.13
2022-12-01T18:33:52.523Z,99246.50
2022-12-01T18:36:24.318Z,99244.78
2022-12-01T18:38:54.360Z,99245.72
2022-12-01T18:41:21.217Z,99242.91
2022-12-01T18:43:47.860Z,99243.44
2022-12-01T18:46:20.228Z,99244.72
2022-12-01T18:48:54.152Z,99248.97
2022-12-01T18:51:21.170Z,99247.28
2022-12-01T18:53:47.829Z,99242.50
2022-12-01T18:56:15.687Z,99243.00
2022-12-01T18:58:42.768Z,99246.81
2022-12-01T19:01:30.513Z,99247.13
2022-12-01T19:04:00.137Z,99240.06
2022-12-01T19:06:29.410Z,99245.63
2022-12-01T19:08:59.750Z,99235.88
2022-12-01T19:11:26.313Z,99240.34
2022-12-01T19:13:52.884Z,99237.66
2022-12-01T19:16:20.248Z,99235.22
2022-12-01T19:18:47.330Z,99237.84
2022-12-01T19:21:17.756Z,99237.34
2022-12-01T19:23:45.416Z,99238.50
2022-12-01T19:26:18.122Z,99240.09
2022-12-01T19:28:45.804Z,99236.69
2022-12-01T19:31:17.475Z,99231.53
2022-12-01T19:33:44.047Z,99235.19
2022-12-01T19:36:15.613Z,99246.50
2022-12-01T19:38:42.339Z,99235.69
2022-12-01T19:41:09.545Z,99237.44
2022-12-01T19:43:37.865Z,99241.91
2022-12-01T19:46:10.868Z,99240.28
2022-12-01T19:48:37.450Z,99234.34
2022-12-01T19:51:04.889Z,99235.63
2022-12-01T19:53:34.078Z,99237.97
2022-12-01T19:56:05.307Z,99232.00
2022-12-01T19:58:35.078Z,99232.19
2022-12-01T20:01:08.151Z,99228.81
2022-12-01T20:03:34.697Z,99230.75
2022-12-01T20:06:08.214Z,99238.56
2022-12-01T20:08:36.093Z,99229.84
2022-12-01T20:11:04.910Z,99233.22
2022-12-01T20:13:39.220Z,99229.13
2022-12-01T20:16:16.155Z,99229.44
2022-12-01T20:18:43.622Z,99229.44
2022-12-01T20:21:17.291Z,99224.31
2022-12-01T20:23:47.045Z,99227.78
2022-12-01T20:26:15.976Z,99230.44
2022-12-01T20:28:45.316Z,99228.16
2022-12-01T20:31:22.339Z,99228.66
2022-12-01T20:33:52.235Z,99218.88
2022-12-01T20:36:19.523Z,99221.41
2022-12-01T20:38:46.052Z,99216.78
2022-12-01T20:41:13.061Z,99214.16
2022-12-01T20:43:39.798Z,99216.03
2022-12-01T20:46:07.823Z,99213.84
2022-12-01T20:48:35.100Z,99216.28
2022-12-01T20:51:04.872Z,99210.38
2022-12-01T20:53:31.857Z,99210.06
2022-12-01T20:56:04.439Z,99210.91
2022-12-01T20:58:35.991Z,99208.03
2022-12-01T21:01:15.811Z,99210.69
2022-12-01T21:03:45.020Z,99207.13
2022-12-01T21:06:15.298Z,99212.56
2022-12-01T21:08:44.766Z,99214.34
2022-12-01T21:11:45.850Z,99212.22
2022-12-01T21:14:43.950Z,99217.53
2022-12-01T21:17:32.888Z,99210.56
2022-12-01T21:20:21.590Z,99214.50
2022-12-01T21:22:51.094Z,99213.78
2022-12-01T21:25:22.657Z,99212.38
2022-12-01T21:27:50.089Z,99213.66
2022-12-01T21:30:22.549Z,99210.94
2022-12-01T21:32:49.531Z,99208.56
2022-12-01T21:35:24.598Z,99213.81
2022-12-01T21:38:00.386Z,99203.81
2022-12-01T21:40:28.416Z,99207.47
2022-12-01T21:42:58.532Z,99200.81
2022-12-01T21:45:28.453Z,99202.66
2022-12-01T21:48:15.971Z,99202.91
2022-12-01T21:50:42.736Z,99202.00
2022-12-01T21:53:16.105Z,99201.03
2022-12-01T21:55:46.210Z,99198.28
2022-12-01T21:58:30.145Z,99203.84
2022-12-01T22:00:59.416Z,99201.81
2022-12-01T22:03:34.202Z,99192.47
2022-12-01T22:06:35.518Z,99197.13
2022-12-01T22:09:35.292Z,99195.00
2022-12-01T22:12:20.321Z,99197.03
2022-12-01T22:14:46.748Z,99193.72
2022-12-01T22:17:20.686Z,99181.34
2022-12-01T22:20:00.380Z,99180.19
2022-12-01T22:22:29.654Z,99181.78
2022-12-01T22:25:24.557Z,99178.38
2022-12-01T22:27:51.799Z,99175.50
2022-12-01T22:30:24.154Z,99166.78
2022-12-01T22:33:03.625Z,99165.94
2022-12-01T22:35:42.130Z,99158.00
2022-12-01T22:38:11.603Z,99155.34
2022-12-01T22:41:05.929Z,99148.56
2022-12-01T22:43:48.660Z,99148.47
2022-12-01T22:46:39.695Z,99146.44
2022-12-01T22:49:06.166Z,99147.25
2022-12-01T22:51:42.183Z,99146.19
2022-12-01T22:54:14.624Z,99143.06
2022-12-01T22:57:10.001Z,99142.66
2022-12-01T22:59:40.286Z,99142.38
2022-12-01T23:02:21.173Z,99139.28
2022-12-01T23:04:58.585Z,99139.66
2022-12-01T23:07:43.018Z,99133.28
2022-12-01T23:10:20.451Z,99133.50
2022-12-01T23:12:50.625Z,99132.56
2022-12-01T23:15:22.134Z,99132.25
2022-12-01T23:17:50.271Z,99124.38
2022-12-01T23:20:19.701Z,99133.34
2022-12-01T23:22:49.441Z,99136.78
2022-12-01T23:25:19.188Z,99133.41
2022-12-01T23:27:49.551Z,99133.41
2022-12-01T23:30:18.421Z,99125.06
2022-12-01T23:32:47.837Z,99124.38
2022-12-01T23:35:17.942Z,99131.09
2022-12-01T23:37:47.893Z,99124.50
2022-12-01T23:40:35.291Z,99127.16
2022-12-01T23:43:19.093Z,99120.50
2022-12-01T23:45:47.775Z,99117.63
2022-12-01T23:48:29.131Z,99119.63
2022-12-01T23:50:55.785Z,99112.34
2022-12-01T23:53:33.316Z,99113.28
2022-12-01T23:56:12.024Z,99116.63
2022-12-01T23:58:38.485Z,99107.69
